| time (UTC) | temp F | wind direction | speed knots | gust knots | rain 1hr in | rain 24hr in | rain mn in | humidity % | barometer mb |
| 20260507110943 | 62 | 315 | 1.7 | 2.6 | 0.00 | 0.00 | 0.00 | 39 | 1007.5 |
| 20260507105443 | 61 | 225 | 0.0 | 0.0 | 0.00 | 0.00 | 0.00 | 40 | 1007.5 |
| 20260507104943 | 62 | 270 | 0.0 | 0.0 | 0.00 | 0.00 | 0.00 | 40 | 1007.5 |
| 20260507104443 | 61 | 315 | 0.9 | 1.7 | 0.00 | 0.00 | 0.00 | 40 | 1007.5 |
| 20260507103443 | 61 | 45 | 0.0 | 0.0 | 0.00 | 0.00 | 0.00 | 41 | 1007.5 |
| 20260507102943 | 61 | 180 | 0.0 | 0.0 | 0.00 | 0.00 | 0.00 | 41 | 1007.5 |
| 20260507100443 | 61 | 270 | 0.0 | 0.0 | 0.00 | 0.00 | 0.00 | 41 | 1007.5 |
| 20260507095943 | 61 | 270 | 0.0 | 0.0 | 0.00 | 0.00 | 0.00 | 40 | 1007.5 |
| 20260507094443 | 61 | 225 | 0.0 | 0.0 | 0.00 | 0.00 | 0.00 | 40 | 1007.5 |
| 20260507093943 | 62 | 225 | 0.0 | 0.0 | 0.00 | 0.00 | 0.00 | 39 | 1007.5 |
| 20260507091443 | 62 | 270 | 0.0 | 0.0 | 0.00 | 0.00 | 0.00 | 39 | 1007.5 |
| 20260507090943 | 62 | 270 | 0.0 | 0.0 | 0.00 | 0.00 | 0.00 | 38 | 1007.5 |
| 20260507090443 | 62 | 270 | 0.0 | 0.0 | 0.00 | 0.00 | 0.00 | 37 | 1007.5 |
| 20260507081443 | 66 | 0 | 0.0 | 0.0 | 0.00 | 0.00 | 0.00 | 33 | 1007.5 |
| 20260507080942 | 66 | 0 | 0.0 | 0.0 | 0.00 | 0.00 | 0.00 | 33 | 1007.5 |
| 20260507080442 | 66 | 0 | 0.0 | 0.0 | 0.00 | 0.00 | 0.00 | 32 | 1007.5 |
| 20260507075443 | 67 | 0 | 0.0 | 0.0 | 0.00 | 0.00 | 0.00 | 31 | 1007.5 |
| 20260507074943 | 68 | 315 | 0.0 | 0.0 | 0.00 | 0.00 | 0.00 | 30 | 1007.5 |
| 20260507074442 | 67 | 270 | 0.0 | 0.0 | 0.00 | 0.00 | 0.00 | 30 | 1007.5 |
| 20260507073943 | 68 | 225 | 0.0 | 0.0 | 0.00 | 0.00 | 0.00 | 30 | 1007.5 |
| 20260507073443 | 68 | 270 | 0.0 | 0.0 | 0.00 | 0.00 | 0.00 | 30 | 1007.5 |
| 20260507072943 | 68 | 270 | 0.9 | 0.9 | 0.00 | 0.00 | 0.00 | 30 | 1007.5 |
| 20260507071942 | 67 | 225 | 1.7 | 0.9 | 0.00 | 0.00 | 0.00 | 31 | 1007.5 |
| 20260507070443 | 66 | 225 | 0.0 | 0.0 | 0.00 | 0.00 | 0.00 | 33 | 1007.5 |
| 20260507065943 | 66 | 225 | 0.0 | 0.0 | 0.00 | 0.00 | 0.00 | 33 | 1007.5 |
| 20260507065443 | 66 | 225 | 0.0 | 0.0 | 0.00 | 0.00 | 0.00 | 33 | 1007.5 |
| 20260507064943 | 66 | 225 | 0.0 | 0.0 | 0.00 | 0.00 | 0.00 | 32 | 1007.5 |
| 20260507064442 | 66 | 225 | 0.0 | 0.0 | 0.00 | 0.00 | 0.00 | 32 | 1007.5 |
| 20260507063443 | 67 | 225 | 0.0 | 0.0 | 0.00 | 0.00 | 0.00 | 32 | 1007.5 |
| 20260507062442 | 67 | 225 | 0.0 | 0.0 | 0.00 | 0.00 | 0.00 | 31 | 1007.5 |
| 20260507061443 | 68 | 270 | 0.0 | 0.0 | 0.00 | 0.00 | 0.00 | 31 | 1007.5 |
| 20260507055942 | 70 | 225 | 0.0 | 0.0 | 0.00 | 0.00 | 0.00 | 30 | 1007.5 |
| 20260507055442 | 70 | 225 | 0.0 | 0.0 | 0.00 | 0.00 | 0.00 | 30 | 1007.5 |
| 20260507054942 | 70 | 225 | 0.0 | 0.0 | 0.00 | 0.00 | 0.00 | 29 | 1007.5 |
| 20260507054442 | 71 | 225 | 0.0 | 0.0 | 0.00 | 0.00 | 0.00 | 28 | 1007.5 |
| 20260507053442 | 71 | 270 | 0.0 | 0.0 | 0.00 | 0.00 | 0.00 | 28 | 1007.5 |
| 20260507052942 | 72 | 270 | 0.9 | 0.9 | 0.00 | 0.00 | 0.00 | 28 | 1007.5 |
| 20260507052443 | 72 | 270 | 0.0 | 0.0 | 0.00 | 0.00 | 0.00 | 28 | 1007.5 |
| 20260507051942 | 72 | 270 | 0.0 | 0.0 | 0.00 | 0.00 | 0.00 | 28 | 1007.5 |
| 20260507051442 | 72 | 270 | 0.0 | 0.0 | 0.00 | 0.00 | 0.00 | 28 | 1007.5 |
| 20260507050942 | 72 | 270 | 2.6 | 1.7 | 0.00 | 0.00 | 0.00 | 28 | 1007.5 |
| 20260507045942 | 70 | 270 | 0.0 | 0.0 | 0.00 | 0.00 | 0.00 | 29 | 1007.5 |
| 20260507044942 | 68 | 225 | 0.0 | 0.0 | 0.00 | 0.00 | 0.00 | 33 | 1007.5 |
| 20260507044442 | 68 | 225 | 0.0 | 0.0 | 0.00 | 0.00 | 0.00 | 32 | 1007.5 |
| 20260507043942 | 69 | 225 | 0.0 | 0.0 | 0.00 | 0.00 | 0.00 | 31 | 1007.5 |
| 20260507043442 | 69 | 225 | 0.0 | 0.0 | 0.00 | 0.00 | 0.00 | 31 | 1007.5 |
| 20260507042942 | 69 | 225 | 0.0 | 0.0 | 0.00 | 0.00 | 0.00 | 30 | 1007.5 |
| 20260507040442 | 71 | 225 | 0.0 | 0.0 | 0.00 | 0.00 | 0.00 | 28 | 1007.5 |
| 20260507035942 | 71 | 225 | 0.0 | 0.0 | 0.00 | 0.00 | 0.00 | 28 | 1007.5 |
| 20260507035442 | 72 | 225 | 0.0 | 0.0 | 0.00 | 0.00 | 0.00 | 27 | 1007.5 |
| 20260507034942 | 72 | 225 | 0.0 | 0.0 | 0.00 | 0.00 | 0.00 | 27 | 1007.5 |
| 20260507034442 | 73 | 225 | 0.0 | 0.0 | 0.00 | 0.00 | 0.00 | 26 | 1007.5 |
| 20260507033942 | 74 | 225 | 0.0 | 0.0 | 0.00 | 0.00 | 0.00 | 25 | 1007.5 |
| 20260507033442 | 74 | 225 | 0.0 | 0.0 | 0.00 | 0.00 | 0.00 | 25 | 1007.5 |
| 20260507032942 | 75 | 225 | 0.0 | 0.0 | 0.00 | 0.00 | 0.00 | 24 | 1007.5 |
| 20260507032442 | 75 | 225 | 0.0 | 0.0 | 0.00 | 0.00 | 0.00 | 24 | 1007.5 |
| 20260507031942 | 76 | 225 | 0.0 | 0.0 | 0.00 | 0.00 | 0.00 | 24 | 1007.5 |
| 20260507030942 | 77 | 225 | 1.7 | 1.7 | 0.00 | 0.00 | 0.00 | 23 | 1007.5 |
| 20260507030442 | 77 | 225 | 2.6 | 1.7 | 0.00 | 0.00 | 0.00 | 23 | 1007.5 |
| 20260507025942 | 78 | 225 | 2.6 | 1.7 | 0.00 | 0.00 | 0.00 | 22 | 1007.5 |
| 20260507025442 | 78 | 270 | 0.9 | 1.7 | 0.00 | 0.00 | 0.00 | 22 | 1007.5 |
| 20260507024942 | 79 | 270 | 2.6 | 1.7 | 0.00 | 0.00 | 0.00 | 22 | 1007.5 |
| 20260507023942 | 79 | 270 | 4.3 | 3.5 | 0.00 | 0.00 | 0.00 | 22 | 1007.5 |
| 20260507023442 | 79 | 270 | 4.3 | 1.7 | 0.00 | 0.00 | 0.00 | 22 | 1007.5 |
| 20260507022942 | 79 | 270 | 3.5 | 3.5 | 0.00 | 0.00 | 0.00 | 22 | 1007.5 |
| 20260507021442 | 80 | 225 | 3.5 | 3.5 | 0.00 | 0.00 | 0.00 | 21 | 1007.5 |
| 20260507020942 | 80 | 270 | 4.3 | 4.3 | 0.00 | 0.00 | 0.00 | 21 | 1007.5 |
| 20260507014942 | 83 | 270 | 3.5 | 2.6 | 0.00 | 0.00 | 0.00 | 19 | 1007.5 |
| 20260507014442 | 83 | 270 | 3.5 | 2.6 | 0.00 | 0.00 | 0.00 | 19 | 1007.5 |
| 20260507013442 | 84 | 225 | 2.6 | 2.6 | 0.00 | 0.00 | 0.00 | 19 | 1007.5 |
| 20260507012942 | 84 | 225 | 3.5 | 6.1 | 0.00 | 0.00 | 0.00 | 19 | 1007.5 |
| 20260507012442 | 84 | 270 | 5.2 | 3.5 | 0.00 | 0.00 | 0.00 | 19 | 1007.5 |
| 20260507011942 | 85 | 225 | 7.0 | 5.2 | 0.00 | 0.00 | 0.00 | 19 | 1007.5 |
| 20260507011442 | 86 | 270 | 4.3 | 2.6 | 0.00 | 0.00 | 0.00 | 19 | 1007.5 |
| 20260507010942 | 86 | 225 | 4.3 | 5.2 | 0.00 | 0.00 | 0.00 | 19 | 1007.5 |
| 20260507005942 | 87 | 270 | 4.3 | 3.5 | 0.00 | 0.00 | 0.00 | 18 | 1007.5 |
| 20260507004942 | 88 | 225 | 4.3 | 6.1 | 0.00 | 0.00 | 0.00 | 18 | 1007.5 |
| 20260507003942 | 87 | 270 | 7.0 | 4.3 | 0.00 | 0.00 | 0.00 | 18 | 1007.5 |
| 20260507003442 | 89 | 270 | 6.1 | 5.2 | 0.00 | 0.00 | 0.00 | 17 | 1007.5 |
| 20260507001442 | 89 | 225 | 4.3 | 6.1 | 0.00 | 0.00 | 0.00 | 17 | 1007.5 |
| 20260507000942 | 90 | 180 | 1.7 | 3.5 | 0.00 | 0.00 | 0.00 | 17 | 1007.5 |
| 20260507000442 | 89 | 180 | 1.7 | 1.7 | 0.00 | 0.00 | 0.00 | 18 | 1007.5 |
| 20260506235442 | 90 | 270 | 4.3 | 4.3 | 0.00 | 0.00 | 0.00 | 17 | 1007.5 |
| 20260506233442 | 88 | 270 | 1.7 | 1.7 | 0.00 | 0.00 | 0.00 | 18 | 1007.5 |
| 20260506232442 | 86 | 180 | 1.7 | 2.6 | 0.00 | 0.00 | 0.00 | 18 | 1007.5 |
| 20260506231942 | 88 | 45 | 1.7 | 3.5 | 0.00 | 0.00 | 0.00 | 18 | 1007.5 |
| 20260506231442 | 88 | 270 | 3.5 | 4.3 | 0.00 | 0.00 | 0.00 | 18 | 1007.5 |
| 20260506230942 | 89 | 270 | 4.3 | 4.3 | 0.00 | 0.00 | 0.00 | 17 | 1007.5 |
| 20260506230442 | 89 | 270 | 6.1 | 5.2 | 0.00 | 0.00 | 0.00 | 17 | 1007.5 |
| 20260506225942 | 90 | 315 | 3.5 | 2.6 | 0.00 | 0.00 | 0.00 | 17 | 1007.5 |
| 20260506225442 | 89 | 315 | 0.9 | 0.9 | 0.00 | 0.00 | 0.00 | 17 | 1007.5 |
| 20260506224942 | 86 | 135 | 3.5 | 1.7 | 0.00 | 0.00 | 0.00 | 18 | 1007.5 |
| 20260506223442 | 88 | 45 | 2.6 | 3.5 | 0.00 | 0.00 | 0.00 | 18 | 1007.5 |
| 20260506222942 | 88 | 180 | 1.7 | 1.7 | 0.00 | 0.00 | 0.00 | 18 | 1007.5 |
| 20260506220942 | 90 | 270 | 4.3 | 6.1 | 0.00 | 0.00 | 0.00 | 17 | 1007.5 |
| 20260506220442 | 89 | 270 | 3.5 | 3.5 | 0.00 | 0.00 | 0.00 | 18 | 1007.5 |
| 20260506215942 | 88 | 270 | 5.2 | 4.3 | 0.00 | 0.00 | 0.00 | 18 | 1007.5 |
| 20260506214442 | 85 | 135 | 2.6 | 2.6 | 0.00 | 0.00 | 0.00 | 19 | 1007.5 |
| 20260506213442 | 88 | 270 | 5.2 | 5.2 | 0.00 | 0.00 | 0.00 | 18 | 1007.5 |
| 20260506212942 | 87 | 270 | 5.2 | 5.2 | 0.00 | 0.00 | 0.00 | 18 | 1007.5 |
| 20260506211942 | 87 | 225 | 5.2 | 4.3 | 0.00 | 0.00 | 0.00 | 18 | 1007.5 |
| 20260506211442 | 88 | 270 | 3.5 | 3.5 | 0.00 | 0.00 | 0.00 | 17 | 1007.5 |
| 20260506210942 | 87 | 270 | 4.3 | 4.3 | 0.00 | 0.00 | 0.00 | 18 | 1007.5 |
| 20260506210442 | 85 | 180 | 0.9 | 0.0 | 0.00 | 0.00 | 0.00 | 19 | 1007.5 |
| 20260506204442 | 88 | 315 | 4.3 | 4.3 | 0.00 | 0.00 | 0.00 | 18 | 1007.5 |
| 20260506203942 | 87 | 315 | 4.3 | 1.7 | 0.00 | 0.00 | 0.00 | 18 | 1007.5 |
| 20260506203442 | 89 | 270 | 4.3 | 5.2 | 0.00 | 0.00 | 0.00 | 18 | 1007.5 |
| 20260506202942 | 86 | 90 | 2.6 | 2.6 | 0.00 | 0.00 | 0.00 | 19 | 1007.5 |
| 20260506202442 | 87 | 315 | 0.9 | 2.6 | 0.00 | 0.00 | 0.00 | 18 | 1007.5 |
| 20260506201442 | 88 | 45 | 3.5 | 3.5 | 0.00 | 0.00 | 0.00 | 18 | 1007.5 |
| 20260506200442 | 87 | 315 | 3.5 | 1.7 | 0.00 | 0.00 | 0.00 | 18 | 1007.5 |
| 20260506195942 | 86 | 270 | 0.9 | 1.7 | 0.00 | 0.00 | 0.00 | 19 | 1007.5 |
| 20260506194442 | 83 | 270 | 2.6 | 1.7 | 0.00 | 0.00 | 0.00 | 20 | 1007.5 |
| 20260506193942 | 84 | 180 | 3.5 | 3.5 | 0.00 | 0.00 | 0.00 | 20 | 1007.5 |
| 20260506192442 | 85 | 270 | 7.8 | 4.3 | 0.00 | 0.00 | 0.00 | 18 | 1007.5 |
| 20260506191442 | 85 | 180 | 4.3 | 2.6 | 0.00 | 0.00 | 0.00 | 19 | 1007.5 |
| 20260506185942 | 82 | 135 | 2.6 | 3.5 | 0.00 | 0.00 | 0.00 | 21 | 1007.5 |
| 20260506185442 | 83 | 180 | 6.1 | 4.3 | 0.00 | 0.00 | 0.00 | 22 | 1007.5 |
| 20260506184942 | 84 | 180 | 2.6 | 1.7 | 0.00 | 0.00 | 0.00 | 21 | 1007.5 |
| 20260506183942 | 82 | 135 | 2.6 | 3.5 | 0.00 | 0.00 | 0.00 | 22 | 1007.5 |
| 20260506183442 | 83 | 225 | 3.5 | 4.3 | 0.00 | 0.00 | 0.00 | 21 | 1007.5 |
| 20260506182442 | 82 | 225 | 3.5 | 3.5 | 0.00 | 0.00 | 0.00 | 22 | 1007.5 |
| 20260506180942 | 83 | 270 | 0.0 | 1.7 | 0.00 | 0.00 | 0.00 | 22 | 1007.5 |
| 20260506175942 | 84 | 270 | 2.6 | 3.5 | 0.00 | 0.00 | 0.00 | 22 | 1007.5 |
| 20260506175442 | 84 | 315 | 4.3 | 5.2 | 0.00 | 0.00 | 0.00 | 23 | 1007.5 |
| 20260506174442 | 82 | 270 | 2.6 | 4.3 | 0.00 | 0.00 | 0.00 | 23 | 1007.5 |
| 20260506173942 | 81 | 270 | 3.5 | 4.3 | 0.00 | 0.00 | 0.00 | 24 | 1007.5 |
| 20260506173442 | 80 | 225 | 1.7 | 1.7 | 0.00 | 0.00 | 0.00 | 25 | 1007.5 |
| 20260506172942 | 80 | 270 | 2.6 | 3.5 | 0.00 | 0.00 | 0.00 | 25 | 1007.5 |
| 20260506171442 | 77 | 180 | 1.7 | 1.7 | 0.00 | 0.00 | 0.00 | 26 | 1007.5 |
| 20260506170942 | 79 | 225 | 4.3 | 6.1 | 0.00 | 0.00 | 0.00 | 25 | 1007.5 |
| 20260506170442 | 78 | 270 | 1.7 | 3.5 | 0.00 | 0.00 | 0.00 | 26 | 1007.5 |
| 20260506165942 | 79 | 270 | 4.3 | 4.3 | 0.00 | 0.00 | 0.00 | 25 | 1007.5 |
| 20260506165442 | 77 | 270 | 0.9 | 1.7 | 0.00 | 0.00 | 0.00 | 26 | 1007.5 |
| 20260506164442 | 78 | 225 | 1.7 | 0.9 | 0.00 | 0.00 | 0.00 | 26 | 1007.5 |
| 20260506163942 | 77 | 270 | 2.6 | 5.2 | 0.00 | 0.00 | 0.00 | 26 | 1007.5 |
| 20260506162942 | 77 | 45 | 0.9 | 0.9 | 0.00 | 0.00 | 0.00 | 27 | 1007.5 |
| 20260506160442 | 74 | 180 | 2.6 | 1.7 | 0.00 | 0.00 | 0.00 | 30 | 1007.5 |
| 20260506155942 | 75 | 270 | 3.5 | 1.7 | 0.00 | 0.00 | 0.00 | 29 | 1007.5 |
| 20260506155442 | 73 | 270 | 0.9 | 0.0 | 0.00 | 0.00 | 0.00 | 31 | 1007.5 |
| 20260506154942 | 72 | 180 | 1.7 | 0.9 | 0.00 | 0.00 | 0.00 | 31 | 1007.5 |
| 20260506153442 | 73 | 135 | 0.9 | 0.0 | 0.00 | 0.00 | 0.00 | 31 | 1007.5 |
| 20260506152442 | 71 | 225 | 1.7 | 2.6 | 0.00 | 0.00 | 0.00 | 32 | 1007.5 |
| 20260506151942 | 71 | 225 | 0.9 | 0.0 | 0.00 | 0.00 | 0.00 | 33 | 1007.5 |
| 20260506150942 | 72 | 270 | 0.9 | 1.7 | 0.00 | 0.00 | 0.00 | 33 | 1007.5 |
| 20260506145442 | 70 | 225 | 3.5 | 3.5 | 0.00 | 0.00 | 0.00 | 33 | 1007.5 |
| 20260506142442 | 69 | 315 | 1.7 | 1.7 | 0.00 | 0.00 | 0.00 | 35 | 1007.5 |
| 20260506141942 | 69 | 270 | 4.3 | 2.6 | 0.00 | 0.00 | 0.00 | 35 | 1007.5 |
| 20260506140442 | 68 | 270 | 1.7 | 0.9 | 0.00 | 0.00 | 0.00 | 36 | 1007.5 |
| 20260506134442 | 66 | 270 | 0.9 | 0.9 | 0.00 | 0.00 | 0.00 | 39 | 1007.5 |
| 20260506133942 | 65 | 270 | 0.0 | 0.0 | 0.00 | 0.00 | 0.00 | 39 | 1007.5 |
| 20260506133442 | 64 | 270 | 0.0 | 0.0 | 0.00 | 0.00 | 0.00 | 41 | 1007.5 |
| 20260506132942 | 63 | 45 | 0.0 | 0.0 | 0.00 | 0.00 | 0.00 | 43 | 1007.5 |
| 20260506132442 | 62 | 270 | 0.0 | 0.0 | 0.00 | 0.00 | 0.00 | 44 | 1007.5 |
| 20260506131942 | 60 | 270 | 0.0 | 0.0 | 0.00 | 0.00 | 0.00 | 46 | 1007.5 |
| 20260506130942 | 59 | 270 | 0.0 | 0.9 | 0.00 | 0.00 | 0.00 | 48 | 1007.5 |
| 20260506130442 | 58 | 270 | 0.0 | 0.9 | 0.00 | 0.00 | 0.00 | 50 | 1007.5 |
| 20260506125442 | 55 | 270 | 0.0 | 0.0 | 0.00 | 0.00 | 0.00 | 55 | 1007.5 |
| 20260506124442 | 55 | 225 | 0.0 | 0.0 | 0.00 | 0.00 | 0.00 | 55 | 1007.5 |
| 20260506123942 | 55 | 225 | 0.0 | 0.0 | 0.00 | 0.00 | 0.00 | 55 | 1007.5 |
| 20260506120942 | 56 | 135 | 0.0 | 0.0 | 0.00 | 0.00 | 0.00 | 51 | 1007.5 |
| 20260506120442 | 57 | 225 | 0.0 | 0.0 | 0.00 | 0.00 | 0.00 | 50 | 1007.5 |
| 20260506115442 | 58 | 270 | 0.0 | 0.0 | 0.00 | 0.00 | 0.00 | 49 | 1007.5 |
| 20260506114942 | 58 | 270 | 0.0 | 0.0 | 0.00 | 0.00 | 0.00 | 49 | 1007.5 |
| 20260506114442 | 58 | 270 | 0.9 | 0.9 | 0.00 | 0.00 | 0.00 | 49 | 1007.5 |
| 20260506113942 | 58 | 225 | 0.0 | 0.9 | 0.00 | 0.00 | 0.00 | 49 | 1007.5 |
| 20260506113442 | 58 | 225 | 1.7 | 1.7 | 0.00 | 0.00 | 0.00 | 49 | 1007.5 |
| 20260506112942 | 58 | 270 | 0.0 | 0.0 | 0.00 | 0.00 | 0.00 | 49 | 1007.5 |
| 20260506112442 | 58 | 225 | 0.0 | 0.0 | 0.00 | 0.00 | 0.00 | 49 | 1007.5 |
| 20260506111942 | 58 | 225 | 0.9 | 0.9 | 0.00 | 0.00 | 0.00 | 49 | 1007.5 |